Time;durP1;ratioP1;P1;durP2;ratioP2;P2;SDS_P1;SDS_P2;PMS_P1;PMS_P2;Temp;Humidity;BMP_temperature;BMP_pressure;BME280_temperature;BME280_humidity;BME280_pressure;Samples;Min_cycle;Max_cycle;Signal;HPM_P1;HPM_P2
2022/05/25 00:00:36;;;;;;;;;;;;;;;19.86;62.74;99690.19;2042702;28;20185;-52
2022/05/25 00:01:36;;;;;;;;;;;;;;;19.87;62.70;99693.72;2043438;28;20048;-49
2022/05/25 00:02:36;;;;;;;;;;;;;;;19.86;62.96;99689.41;2042306;28;20009;-50
2022/05/25 00:03:37;;;;;;;;;;;;;;;19.86;63.09;99686.66;2043991;28;19914;-51
2022/05/25 00:04:37;;;;;;;;;;;;;;;19.85;62.69;99688.63;2041311;28;20063;-48
2022/05/25 00:05:39;;;;;;;7.00;3.40;;;;;;;19.85;62.25;99674.91;2043324;28;20042;-48
2022/05/25 00:06:40;;;;;;;;;;;;;;;19.86;62.70;99679.19;2043182;28;20034;-50
2022/05/25 00:07:40;;;;;;;;;;;;;;;19.86;62.76;99689.41;2041272;28;20695;-51
2022/05/25 00:08:41;;;;;;;5.50;4.20;;;;;;;19.84;63.10;99692.59;2044040;28;20047;-49
2022/05/25 00:09:41;;;;;;;;;;;;;;;19.85;62.88;99683.16;2046470;28;19910;-49
2022/05/25 00:10:42;;;;;;;;;;;;;;;19.84;62.98;99687.09;2044403;28;20087;-50
2022/05/25 00:11:42;;;;;;;;;;;;;;;19.84;63.16;99684.34;2041102;28;19922;-50
2022/05/25 00:12:43;;;;;;;;;;;;;;;19.86;63.01;99690.19;2040430;28;20027;-47
2022/05/25 00:13:43;;;;;;;;;;;;;;;19.85;62.32;99691.38;2043506;28;24073;-48
2022/05/25 00:14:44;;;;;;;;;;;;;;;19.86;62.28;99684.69;2043896;28;20864;-48
2022/05/25 00:15:44;;;;;;;;;;;;;;;19.84;62.63;99684.34;2043754;28;20103;-49
2022/05/25 00:16:45;;;;;;;4.05;2.85;;;;;;;19.85;62.89;99683.16;2046210;28;20053;-48
2022/05/25 00:17:47;;;;;;;;;;;;;;;19.86;63.43;99686.66;2047137;28;20021;-50
2022/05/25 00:20:06;;;;;;;;;;;;;;;19.88;62.78;99687.78;2043838;28;19913;-48
2022/05/25 00:21:07;;;;;;;;;;;;;;;19.89;62.68;99681.09;2044596;28;20072;-49
2022/05/25 00:22:07;;;;;;;;;;;;;;;19.89;62.77;99689.31;2046635;28;20049;-47
2022/05/25 00:23:08;;;;;;;;;;;;;;;19.88;62.77;99687.78;2041399;28;20261;-49
2022/05/25 00:24:09;;;;;;;6.70;2.50;;;;;;;19.89;62.47;99683.06;2044515;28;19926;-51
2022/05/25 00:25:10;;;;;;;;;;;;;;;19.88;62.89;99682.28;2044058;28;20481;-47
2022/05/25 00:26:11;;;;;;;;;;;;;;;19.88;63.01;99687.78;2044511;28;20998;-47
2022/05/25 00:27:11;;;;;;;;;;;;;;;19.87;63.06;99690.97;2040449;28;19913;-50
2022/05/25 00:28:12;;;;;;;;;;;;;;;19.87;63.15;99697.25;2045650;28;20041;-47
2022/05/25 00:29:14;;;;;;;;;;;;;;;19.87;63.18;99690.97;2052931;28;20080;-50
2022/05/25 00:30:15;;;;;;;;;;;;;;;19.85;63.14;99688.63;2050311;28;20814;-48
2022/05/25 00:31:15;;;;;;;;;;;;;;;19.85;63.04;99693.38;2046396;28;19922;-49
2022/05/25 00:32:16;;;;;;;;;;;;;;;19.84;62.87;99695.34;2043521;28;25050;-47
2022/05/25 00:33:19;;;;;;;;;;;;;;;19.83;63.26;99694.56;2042649;28;20725;-49
2022/05/25 00:34:19;;;;;;;;;;;;;;;19.84;62.75;99689.84;2044114;28;19945;-48
2022/05/25 00:35:21;;;;;;;;;;;;;;;19.84;62.22;99695.34;2042945;28;20055;-47
2022/05/25 00:36:22;;;;;;;3.70;1.70;;;;;;;19.82;62.06;99684.00;2053729;28;19909;-50
2022/05/25 00:37:22;;;;;;;;;;;;;;;19.81;62.18;99688.72;2048984;28;20736;-47
2022/05/25 00:38:22;;;;;;;;;;;;;;;19.81;62.49;99691.47;2043364;28;20596;-50
2022/05/25 00:39:23;;;;;;;;;;;;;;;19.81;62.85;99682.47;2049598;28;19913;-50
2022/05/25 00:40:26;;;;;;;;;;;;;;;19.78;62.29;99686.03;2041871;28;20062;-47
2022/05/25 00:41:28;;;;;;;;;;;;;;;19.77;62.38;99681.78;2044880;28;20276;-48
2022/05/25 00:42:28;;;;;;;;;;;;;;;19.78;62.81;99677.81;2045993;28;20757;-48
2022/05/25 00:43:29;;;;;;;2.20;1.50;;;;;;;19.79;62.58;99687.59;2044358;28;20068;-51
2022/05/25 00:44:29;;;;;;;;;;;;;;;19.80;62.48;99686.41;2046898;28;20066;-49
2022/05/25 00:45:38;;;;;;;;;;;;;;;19.80;62.67;99689.16;2045195;28;20603;-47
2022/05/25 00:46:39;;;;;;;;;;;;;;;19.79;62.68;99693.88;2043628;28;20053;-49
2022/05/25 00:47:41;;;;;;;;;;;;;;;19.80;62.57;99689.94;2050711;28;19914;-48
2022/05/25 00:48:46;;;;;;;;;;;;;;;19.79;62.25;99704.09;2051930;28;20286;-48
2022/05/25 00:49:46;;;;;;;;;;;;;;;19.77;62.06;99679.03;2043457;28;20115;-50
2022/05/25 00:52:07;;;;;;;;;;;;;;;19.75;62.73;99695.16;2045822;28;20086;-49
2022/05/25 00:53:08;;;;;;;5.90;1.70;;;;;;;19.74;61.82;99688.09;2043680;28;20038;-48
2022/05/25 00:54:17;;;;;;;3.10;1.00;;;;;;;19.73;61.73;99683.81;2046076;28;20296;-49
2022/05/25 00:55:27;;;;;;;;;;;;;;;19.72;61.89;99690.53;2051596;28;20004;-51
2022/05/25 00:56:29;;;;;;;;;;;;;;;19.75;62.05;99692.41;2044237;28;20339;-51
2022/05/25 00:57:41;;;;;;;2.20;1.30;;;;;;;19.75;62.36;99684.16;2045534;28;20119;-50
2022/05/25 00:58:44;;;;;;;;;;;;;;;19.74;62.74;99679.88;2043130;28;19985;-49
2022/05/25 00:59:57;;;;;;;;;;;;;;;19.74;62.69;99682.59;2051402;28;20036;-52
2022/05/25 01:00:57;;;;;;;;;;;;;;;19.75;62.72;99675.91;2056242;28;20041;-51
2022/05/25 01:01:58;;;;;;;;;;;;;;;19.74;62.81;99683.38;2046261;28;19924;-50
2022/05/25 01:03:00;;;;;;;;;;;;;;;19.75;62.98;99684.94;2046703;28;20257;-49
2022/05/25 01:04:00;;;;;;;;;;;;;;;19.75;62.75;99684.16;2046211;28;20146;-48
2022/05/25 01:05:00;;;;;;;;;;;;;;;19.74;62.85;99688.88;2045098;28;20015;-48
2022/05/25 01:06:05;;;;;;;;;;;;;;;19.75;62.76;99684.16;2047458;28;20027;-51
2022/05/25 01:07:23;;;;;;;1.80;0.90;;;;;;;19.77;62.50;99681.78;2044570;28;19920;-52
2022/05/25 01:08:47;;;;;;;;;;;;;;;19.76;63.00;99685.72;2043223;28;24063;-50
2022/05/25 01:09:50;;;;;;;;;;;;;;;19.74;63.26;99683.38;2031615;28;19989;-51
2022/05/25 01:11:09;;;;;;;;;;;;;;;19.75;62.98;99681.41;2042955;28;20234;-51
2022/05/25 01:12:17;;;;;;;;;;;;;;;19.76;63.02;99691.22;2044338;28;20250;-49
2022/05/25 01:13:25;;;;;;;;;;;;;;;19.76;63.15;99682.97;2044145;28;20024;-48
2022/05/25 01:14:42;;;;;;;2.00;0.90;;;;;;;19.74;63.21;99683.38;2046862;28;20063;-48
2022/05/25 01:15:52;;;;;;;;;;;;;;;19.74;62.75;99677.13;2045770;28;20718;-51
2022/05/25 01:17:04;;;;;;;;;;;;;;;19.75;63.11;99678.66;2040052;28;25070;-51
2022/05/25 01:18:19;;;;;;;;;;;;;;;19.73;63.27;99675.56;2045552;28;20907;-48
2022/05/25 01:19:38;;;;;;;2.20;1.00;;;;;;;19.72;62.67;99674.78;2045336;28;20475;-48
2022/05/25 01:20:38;;;;;;;;;;;;;;;19.71;62.29;99678.75;2041734;28;20062;-53
2022/05/25 01:21:48;;;;;;;;;;;;;;;19.71;62.12;99686.22;2041834;28;20244;-49
2022/05/25 01:23:07;;;;;;;;;;;;;;;19.69;62.69;99677.63;2042750;28;20096;-50
2022/05/25 01:24:37;;;;;;;;;;;;;;;19.68;62.94;99671.34;2045958;28;20644;-51
2022/05/25 01:26:10;;;;;;;5.40;1.00;;;;;;;19.70;63.05;99679.94;2028740;28;20057;-50
2022/05/25 01:27:13;;;;;;;;;;;;;;;19.69;63.01;99680.38;2045946;28;19922;-51
2022/05/25 01:28:52;;;;;;;3.20;1.00;;;;;;;19.69;63.16;99675.66;2042136;28;20029;-48
2022/05/25 01:30:06;;;;;;;2.00;0.90;;;;;;;19.67;63.13;99688.28;2051197;28;20076;-48
2022/05/25 01:31:18;;;;;;;;;;;;;;;19.69;63.25;99685.88;2046012;28;20057;-48
2022/05/25 01:32:35;;;;;;;2.20;1.00;;;;;;;19.70;63.24;99692.91;2044902;28;20141;-48
2022/05/25 01:33:49;;;;;;;3.40;0.90;;;;;;;19.69;63.13;99694.88;2044015;28;21269;-48
2022/05/25 01:34:53;;;;;;;;;;;;;;;19.69;63.45;99685.88;2044466;28;19976;-50
2022/05/25 01:36:11;;;;;;;;;;;;;;;19.70;63.52;99690.16;2044257;28;20106;-50
2022/05/25 01:37:14;;;;;;;;;;;;;;;19.70;63.33;99690.16;2043607;28;20041;-48
2022/05/25 01:38:33;;;;;;;;;;;;;;;19.72;63.25;99691.28;2043125;28;20451;-49
2022/05/25 01:39:41;;;;;;;3.00;0.85;;;;;;;19.72;63.01;99680.28;2042550;28;20034;-51
2022/05/25 01:40:44;;;;;;;;;;;;;;;19.74;62.95;99690.84;2044057;28;19953;-47
2022/05/25 01:41:54;;;;;;;;;;;;;;;19.70;63.58;99681.91;2043670;28;20181;-48
2022/05/25 01:42:57;;;;;;;;;;;;;;;19.71;63.39;99686.22;2039774;28;19913;-47
2022/05/25 01:44:17;;;;;;;;;;;;;;;19.72;63.34;99680.28;2040933;28;20080;-50
2022/05/25 01:45:20;;;;;;;;;;;;;;;19.71;63.55;99677.97;2042785;28;20038;-47
2022/05/25 01:46:25;;;;;;;;;;;;;;;19.71;63.35;99677.97;2044784;28;20054;-48
2022/05/25 01:47:28;;;;;;;;;;;;;;;19.71;63.71;99670.50;2043615;28;20033;-47
2022/05/25 01:48:29;;;;;;;;;;;;;;;19.71;63.72;99672.47;2044593;28;20028;-48
2022/05/25 01:49:39;;;;;;;2.80;1.00;;;;;;;19.70;63.93;99668.19;2044391;28;20060;-48
2022/05/25 01:50:57;;;;;;;2.20;1.00;;;;;;;19.71;63.71;99669.75;2043062;28;20438;-48
2022/05/25 01:52:04;;;;;;;1.90;0.60;;;;;;;19.69;63.57;99669.38;2043554;28;20046;-51
2022/05/25 01:53:09;;;;;;;2.80;1.00;;;;;;;19.69;63.42;99672.13;2044221;28;20502;-49
2022/05/25 01:54:14;;;;;;;2.30;0.80;;;;;;;19.69;63.16;99674.88;2044251;28;20542;-49
2022/05/25 01:55:22;;;;;;;2.80;1.00;;;;;;;19.67;63.66;99675.28;2042483;28;24080;-48
2022/05/25 01:56:25;;;;;;;2.10;0.70;;;;;;;19.68;63.13;99665.06;2044170;28;20300;-52
2022/05/25 01:57:27;;;;;;;;;;;;;;;19.68;63.27;99663.09;2044280;28;20100;-51
2022/05/25 01:58:28;;;;;;;;;;;;;;;19.68;62.81;99663.09;2044683;28;20030;-48
2022/05/25 01:59:29;;;;;;;;;;;;;;;19.67;63.29;99655.31;2043666;28;20040;-49
2022/05/25 02:00:33;;;;;;;;;;;;;;;19.67;63.33;99660.81;2050633;28;19940;-46
2022/05/25 02:01:33;;;;;;;;;;;;;;;19.67;63.20;99660.81;2043859;28;20024;-47
2022/05/25 02:05:14;;;;;;;;;;;;;;;19.64;63.69;99659.69;2040092;28;20072;-47
2022/05/25 02:06:24;;;;;;;;;;;;;;;19.65;63.79;99660.44;2041833;28;21904;-49
2022/05/25 02:07:40;;;;;;;;;;;;;;;19.66;63.66;99660.03;2041556;28;20064;-50
2022/05/25 02:09:05;;;;;;;2.70;0.80;;;;;;;19.67;63.69;99658.06;2043986;28;19921;-49
2022/05/25 02:10:05;;;;;;;;;;;;;;;19.66;63.75;99659.25;2045799;28;20041;-50
2022/05/25 02:11:11;;;;;;;;;;;;;;;19.65;63.46;99652.22;2043223;28;20581;-48
2022/05/25 02:12:32;;;;;;;;;;;;;;;19.66;63.47;99664.75;2040907;28;20347;-49
2022/05/25 02:13:40;;;;;;;;;;;;;;;19.65;63.93;99668.69;2041871;28;20288;-50
2022/05/25 02:15:15;;;;;;;4.80;1.00;;;;;;;19.64;63.69;99670.66;2044239;28;20867;-50
2022/05/25 02:16:27;;;;;;;;;;;;;;;19.64;63.39;99678.91;2042644;28;20242;-49
2022/05/25 02:17:46;;;;;;;;;;;;;;;19.65;63.70;99682.44;2044495;28;19910;-48
2022/05/25 02:19:05;;;;;;;;;;;;;;;19.65;63.56;99696.16;2042894;28;20272;-49
2022/05/25 02:20:29;;;;;;;1.50;0.90;;;;;;;19.64;63.22;99698.13;2042996;28;19914;-50
2022/05/25 02:21:29;;;;;;;;;;;;;;;19.64;63.39;99697.34;2035922;28;24084;-49
2022/05/25 02:22:39;;;;;;;;;;;;;;;19.63;63.38;99704.03;2047978;28;20043;-46
2022/05/25 02:24:07;;;;;;;;;;;;;;;19.63;63.55;99715.03;2048969;28;20066;-47
2022/05/25 02:25:08;;;;;;;;;;;;;;;19.64;63.21;99700.09;2046729;28;20080;-49
2022/05/25 02:26:11;;;;;;;;;;;;;;;19.65;63.42;99712.66;2044170;28;20040;-50
2022/05/25 02:27:11;;;;;;;;;;;;;;;19.65;63.25;99715.41;2043498;28;20074;-50
2022/05/25 02:28:25;;;;;;;;;;;;;;;19.64;63.42;99711.09;2044692;28;20078;-48
2022/05/25 02:29:30;;;;;;;;;;;;;;;19.63;63.64;99715.03;2039643;28;20584;-48
2022/05/25 02:30:33;;;;;;;;;;;;;;;19.64;63.24;99709.13;2044534;28;24074;-49
2022/05/25 02:31:36;;;;;;;;;;;;;;;19.64;63.39;99717.38;2044410;28;19914;-49
2022/05/25 02:32:39;;;;;;;;;;;;;;;19.63;63.41;99715.81;2040937;28;20039;-48
2022/05/25 02:33:42;;;;;;;;;;;;;;;19.61;63.68;99717.44;2041096;28;19945;-48
2022/05/25 02:34:45;;;;;;;;;;;;;;;19.62;63.72;99724.47;2041882;28;19986;-48
2022/05/25 02:35:47;;;;;;;1.70;0.80;;;;;;;19.61;63.77;99717.44;2046140;28;20110;-50
2022/05/25 02:36:49;;;;;;;2.90;0.95;;;;;;;19.63;64.07;99723.28;2043453;28;19933;-48
2022/05/25 02:37:51;;;;;;;;;;;;;;;19.60;64.26;99716.69;2045777;28;19913;-48
2022/05/25 02:38:52;;;;;;;;;;;;;;;19.61;63.64;99720.97;2043381;28;20500;-50
2022/05/25 02:39:53;;;;;;;;;;;;;;;19.62;63.65;99716.22;2042037;28;19929;-52
2022/05/25 02:41:26;;;;;;;;;;;;;;;19.61;63.83;99720.19;2044531;28;20101;-51
2022/05/25 02:42:26;;;;;;;;;;;;;;;19.61;64.20;99711.97;2015752;29;20579;-50
2022/05/25 02:43:27;;;;;;;;;;;;;;;19.62;63.64;99716.22;2032757;28;19929;-48
2022/05/25 02:44:27;;;;;;;;;;;;;;;19.61;63.83;99722.94;2044411;28;20348;-48
2022/05/25 02:45:28;;;;;;;;;;;;;;;19.62;63.84;99727.22;2041270;28;19910;-49
2022/05/25 02:46:28;;;;;;;;;;;;;;;19.62;64.07;99716.22;2044221;28;20294;-50
2022/05/25 02:47:28;;;;;;;;;;;;;;;19.61;63.98;99714.72;2042769;28;20401;-48
2022/05/25 02:48:28;;;;;;;;;;;;;;;19.60;64.01;99716.69;2047992;28;19945;-48
2022/05/25 02:49:29;;;;;;;;;;;;;;;19.60;63.96;99721.41;2041663;28;20832;-49
2022/05/25 02:50:29;;;;;;;;;;;;;;;19.60;63.72;99715.91;2045331;28;25131;-49
2022/05/25 02:51:30;;;;;;;;;;;;;;;19.60;64.01;99719.41;2042589;28;20387;-49
2022/05/25 02:52:30;;;;;;;;;;;;;;;19.61;64.21;99714.72;2045042;28;20054;-49
2022/05/25 02:53:30;;;;;;;;;;;;;;;19.60;64.20;99721.41;2044557;28;20471;-49
2022/05/25 02:54:31;;;;;;;3.90;1.00;;;;;;;19.58;64.39;99718.28;2042798;28;25052;-48
2022/05/25 02:55:31;;;;;;;;;;;;;;;19.58;64.11;99712.78;2045889;28;20492;-49
2022/05/25 02:56:31;;;;;;;;;;;;;;;19.59;64.04;99723.38;2043008;28;20282;-49
2022/05/25 02:57:33;;;;;;;;;;;;;;;19.59;64.19;99717.09;2043468;28;24111;-50
2022/05/25 02:58:34;;;;;;;;;;;;;;;19.58;63.97;99715.53;2044181;28;25053;-48
2022/05/25 02:59:34;;;;;;;;;;;;;;;19.57;64.04;99719.47;2039902;28;20050;-48
2022/05/25 03:00:35;;;;;;;3.40;0.80;;;;;;;19.58;64.31;99730.06;2042488;28;19989;-48
2022/05/25 03:01:35;;;;;;;;;;;;;;;19.59;64.08;99728.06;2044745;28;20799;-47
2022/05/25 03:02:35;;;;;;;;;;;;;;;19.60;63.93;99732.38;2043672;28;20592;-49
2022/05/25 03:03:37;;;;;;;2.60;1.10;;;;;;;19.60;64.01;99732.38;2044464;28;20535;-48
2022/05/25 03:04:38;;;;;;;;;;;;;;;19.59;63.88;99737.09;2044953;28;20062;-50
2022/05/25 03:05:39;;;;;;;;;;;;;;;19.60;63.86;99729.63;2043180;28;24076;-49
2022/05/25 03:06:39;;;;;;;;;;;;;;;19.60;63.79;99737.88;2045041;28;20042;-46
2022/05/25 03:07:40;;;;;;;3.40;1.10;;;;;;;19.59;64.00;99739.84;2044333;28;20013;-50
2022/05/25 03:08:41;;;;;;;;;;;;;;;19.59;64.26;99736.31;2043959;28;20021;-49
2022/05/25 03:09:41;;;;;;;;;;;;;;;19.59;63.99;99744.56;2044570;28;19921;-48
2022/05/25 03:10:41;;;;;;;3.10;0.70;;;;;;;19.60;63.95;99746.13;2044010;28;20116;-51
2022/05/25 03:11:42;;;;;;;;;;;;;;;19.60;63.79;99740.63;2045386;28;19952;-50
2022/05/25 03:12:42;;;;;;;;;;;;;;;19.60;63.67;99743.38;2042861;28;20126;-48
2022/05/25 03:13:47;;;;;;;;;;;;;;;19.59;63.61;99742.59;2042438;28;20263;-50
2022/05/25 03:14:47;;;;;;;;;;;;;;;19.60;63.80;99740.63;2044670;28;25130;-47
2022/05/25 03:15:47;;;;;;;;;;;;;;;19.59;64.19;99750.06;2043878;28;20378;-48
2022/05/25 03:16:48;;;;;;;;;;;;;;;19.59;64.22;99744.56;2041195;28;24080;-49
2022/05/25 03:17:48;;;;;;;;;;;;;;;19.59;64.31;99747.31;2044041;28;20386;-49
2022/05/25 03:18:52;;;;;;;1.60;0.60;;;;;;;19.58;64.31;99756.75;2044325;28;20033;-50
2022/05/25 03:19:55;;;;;;;;;;;;;;;19.58;64.33;99751.25;2042880;28;20094;-50
2022/05/25 03:20:55;;;;;;;;;;;;;;;19.58;64.73;99756.75;2051194;28;19913;-49
2022/05/25 03:21:56;;;;;;;;;;;;;;;19.55;64.65;99752.09;2052742;28;19956;-49
2022/05/25 03:22:56;;;;;;;;;;;;;;;19.56;64.47;99754.44;2042107;28;19922;-47
2022/05/25 03:23:56;;;;;;;;;;;;;;;19.57;64.32;99749.69;2047454;28;20020;-48
2022/05/25 03:24:57;;;;;;;;;;;;;;;19.58;64.30;99754.00;2044564;28;20047;-48
2022/05/25 03:25:57;;;;;;;;;;;;;;;19.58;64.45;99754.00;2042936;28;20073;-47
2022/05/25 03:26:58;;;;;;;;;;;;;;;19.58;64.44;99746.53;2044258;28;19929;-48
2022/05/25 03:28:02;;;;;;;;;;;;;;;19.58;64.49;99751.25;2043365;28;20045;-48
2022/05/25 03:29:02;;;;;;;;;;;;;;;19.57;64.34;99755.19;2047768;28;19910;-48
2022/05/25 03:30:04;;;;;;;;;;;;;;;19.56;64.34;99750.91;2045335;28;20043;-49
2022/05/25 03:31:04;;;;;;;;;;;;;;;19.56;64.39;99756.41;2042571;28;25097;-48
2022/05/25 03:32:05;;;;;;;;;;;;;;;19.55;64.53;99755.63;2051361;28;19953;-51
2022/05/25 03:33:05;;;;;;;;;;;;;;;19.54;64.57;99751.34;2042102;28;24131;-51
2022/05/25 03:34:05;;;;;;;;;;;;;;;19.55;64.49;99758.38;2042225;28;19938;-49
2022/05/25 03:35:06;;;;;;;;;;;;;;;19.54;64.32;99756.06;2044381;28;20368;-49
2022/05/25 03:36:07;;;;;;;;;;;;;;;19.54;64.46;99761.53;2048849;28;20024;-51
2022/05/25 03:37:08;;;;;;;;;;;;;;;19.54;64.19;99761.53;2051485;28;19925;-48
2022/05/25 03:38:08;;;;;;;;;;;;;;;19.53;63.62;99765.47;2042657;28;20050;-51
2022/05/25 03:39:09;;;;;;;;;;;;;;;19.53;63.37;99768.22;2042929;28;20088;-48
2022/05/25 03:40:10;;;;;;;;;;;;;;;19.52;63.12;99769.41;2042356;28;20143;-48
2022/05/25 03:41:11;;;;;;;;;;;;;;;19.51;63.20;99773.38;2044132;28;25089;-48
2022/05/25 03:42:14;;;;;;;;;;;;;;;19.50;63.45;99767.13;2046127;28;19925;-49
2022/05/25 03:43:16;;;;;;;;;;;;;;;19.50;63.61;99774.56;2044296;28;20038;-47
2022/05/25 03:44:17;;;;;;;;;;;;;;;19.50;63.89;99766.34;2050382;28;20046;-50
2022/05/25 03:45:18;;;;;;;2.90;0.90;;;;;;;19.48;64.06;99769.50;2051398;28;25145;-49
2022/05/25 03:46:18;;;;;;;;;;;;;;;19.48;64.10;99779.72;2042750;28;20029;-47
2022/05/25 03:47:19;;;;;;;;;;;;;;;19.47;64.33;99770.69;2041953;28;20068;-46
2022/05/25 03:48:19;;;;;;;;;;;;;;;19.48;64.58;99779.72;2044965;28;19914;-48
2022/05/25 03:49:19;;;;;;;;;;;;;;;19.48;64.25;99774.22;2042261;28;20040;-47
2022/05/25 03:50:20;;;;;;;;;;;;;;;19.50;64.06;99778.09;2044853;28;19949;-49
2022/05/25 03:51:20;;;;;;;;;;;;;;;19.50;63.86;99777.31;2042438;28;19948;-47
2022/05/25 03:52:21;;;;;;;;;;;;;;;19.50;63.89;99782.81;2044153;28;20055;-50
2022/05/25 03:53:22;;;;;;;1.40;0.50;;;;;;;19.48;64.12;99785.97;2041418;28;20042;-47
2022/05/25 03:54:22;;;;;;;;;;;;;;;19.50;64.32;99788.31;2043874;28;20458;-49
2022/05/25 03:55:23;;;;;;;;;;;;;;;19.49;63.65;99778.53;2041166;28;20023;-50
2022/05/25 03:56:23;;;;;;;;;;;;;;;19.47;63.42;99778.94;2052089;28;20462;-48
2022/05/25 03:57:23;;;;;;;;;;;;;;;19.48;63.69;99782.47;2042049;28;20055;-50
2022/05/25 03:58:24;;;;;;;;;;;;;;;19.47;63.45;99772.66;2041402;28;20529;-47
2022/05/25 03:59:24;;;;;;;;;;;;;;;19.47;63.74;99778.16;2048138;28;20351;-47
2022/05/25 04:00:24;;;;;;;;;;;;;;;19.44;63.44;99785.25;2041258;28;24123;-49
2022/05/25 04:01:25;;;;;;;;;;;;;;;19.39;62.88;99783.78;2042742;28;20092;-47
2022/05/25 04:02:25;;;;;;;;;;;;;;;19.39;62.62;99786.53;2043423;28;19918;-50
2022/05/25 04:03:25;;;;;;;;;;;;;;;19.39;62.96;99794.75;2042912;28;24061;-49
2022/05/25 04:04:26;;;;;;;;;;;;;;;19.35;62.64;99788.53;2043062;28;24107;-48
2022/05/25 04:05:26;;;;;;;1.30;0.50;;;;;;;19.35;63.43;99788.53;2042701;28;20076;-47
2022/05/25 04:06:27;;;;;;;;;;;;;;;19.33;62.76;99785.47;2046453;28;25131;-50
2022/05/25 04:07:27;;;;;;;;;;;;;;;19.33;62.68;99788.22;2044462;28;20209;-51
2022/05/25 04:08:28;;;;;;;;;;;;;;;19.31;62.81;99782.34;2045679;28;20540;-48
2022/05/25 04:09:28;;;;;;;;;;;;;;;19.33;63.42;99785.47;2043030;28;19906;-47
2022/05/25 04:10:28;;;;;;;;;;;;;;;19.35;63.10;99787.78;2034706;28;19916;-49
2022/05/25 04:11:29;;;;;;;;;;;;;;;19.33;62.61;99790.94;2043672;28;20053;-50
2022/05/25 04:12:30;;;;;;;;;;;;;;;19.32;62.43;99789.41;2044472;28;20050;-48
2022/05/25 04:13:30;;;;;;;2.70;0.70;;;;;;;19.32;62.79;99794.09;2041673;28;20084;-48
2022/05/25 04:14:31;;;;;;;;;;;;;;;19.30;62.80;99796.50;2045279;28;19969;-48
2022/05/25 04:15:32;;;;;;;;;;;;;;;19.28;62.55;99796.94;2040872;28;20073;-48
2022/05/25 04:16:32;;;;;;;;;;;;;;;19.30;62.77;99797.28;2045992;28;19929;-49
2022/05/25 04:17:33;;;;;;;;;;;;;;;19.31;62.92;99798.03;2045702;28;19918;-49
2022/05/25 04:18:33;;;;;;;;;;;;;;;19.30;62.67;99794.53;2042560;28;19928;-49
2022/05/25 04:19:38;;;;;;;;;;;;;;;19.33;62.87;99803.91;2035831;28;24077;-49
2022/05/25 04:20:39;;;;;;;;;;;;;;;19.33;63.32;99796.44;2036301;28;25067;-50
2022/05/25 04:21:40;;;;;;;;;;;;;;;19.33;63.41;99801.16;2044577;28;19914;-48
2022/05/25 04:22:41;;;;;;;;;;;;;;;19.34;63.32;99802.72;2050536;28;20660;-49
2022/05/25 04:23:41;;;;;;;;;;;;;;;19.34;63.37;99811.72;2050516;28;19914;-48
2022/05/25 04:24:41;;;;;;;;;;;;;;;19.33;62.97;99801.94;2043640;28;20601;-49
2022/05/25 04:25:42;;;;;;;;;;;;;;;19.35;63.20;99816.00;2042580;28;19914;-47
2022/05/25 04:26:43;;;;;;;;;;;;;;;19.34;63.32;99813.69;2043557;28;25081;-51
2022/05/25 04:27:43;;;;;;;;;;;;;;;19.35;63.47;99810.50;2042094;28;25113;-49
2022/05/25 04:28:44;;;;;;;;;;;;;;;19.36;63.54;99820.31;2043579;28;20357;-49
2022/05/25 04:29:44;;;;;;;;;;;;;;;19.35;63.12;99821.50;2043636;28;21076;-47
2022/05/25 04:30:44;;;;;;;;;;;;;;;19.34;62.79;99819.97;2042272;28;20049;-50
2022/05/25 04:31:45;;;;;;;;;;;;;;;19.34;63.04;99822.72;2042699;28;20016;-49
2022/05/25 04:32:45;;;;;;;;;;;;;;;19.34;63.19;99824.69;2043847;28;19918;-47
2022/05/25 04:33:45;;;;;;;;;;;;;;;19.31;62.82;99822.75;2042978;28;20138;-51
2022/05/25 04:34:46;;;;;;;;;;;;;;;19.30;62.65;99819.22;2043926;28;19971;-50
2022/05/25 04:35:46;;;;;;;;;;;;;;;19.31;63.27;99820.78;2043533;28;20012;-50
2022/05/25 04:36:46;;;;;;;;;;;;;;;19.31;63.23;99822.75;2042268;28;19906;-47
2022/05/25 04:37:50;;;;;;;;;;;;;;;19.30;62.96;99821.97;2043856;28;20008;-49
2022/05/25 04:38:50;;;;;;;;;;;;;;;19.31;62.89;99826.28;2040390;28;24101;-49
2022/05/25 04:39:50;;;;;;;;;;;;;;;19.29;62.62;99831.44;2043886;28;24117;-49
2022/05/25 04:40:51;;;;;;;2.00;0.90;;;;;;;19.30;62.77;99829.44;2042632;28;20027;-51
2022/05/25 04:41:51;;;;;;;;;;;;;;;19.29;62.87;99828.69;2042998;28;20040;-50
2022/05/25 04:42:52;;;;;;;;;;;;;;;19.31;63.28;99836.50;2045266;28;19928;-51
2022/05/25 04:43:52;;;;;;;;;;;;;;;19.31;63.09;99840.00;2051373;28;20059;-48
2022/05/25 04:44:58;;;;;;;;;;;;;;;19.32;62.80;99840.78;2049887;28;19924;-47
2022/05/25 04:46:03;;;;;;;;;;;;;;;19.30;63.07;99846.69;2043440;28;19932;-50
2022/05/25 04:47:06;;;;;;;;;;;;;;;19.31;63.03;99851.00;2043169;28;20023;-47
2022/05/25 04:48:06;;;;;;;;;;;;;;;19.30;62.59;99846.69;2044023;28;19914;-48
2022/05/25 04:49:07;;;;;;;;;;;;;;;19.30;63.26;99851.41;2041471;28;19921;-48
2022/05/25 04:50:08;;;;;;;;;;;;;;;19.27;62.82;99857.75;2042768;28;20040;-47
2022/05/25 04:51:09;;;;;;;;;;;;;;;19.26;62.56;99861.69;2043456;28;24078;-48
2022/05/25 04:52:09;;;;;;;;;;;;;;;19.24;62.58;99862.13;2045528;28;20078;-48
2022/05/25 04:53:11;;;;;;;;;;;;;;;19.22;63.17;99861.75;2041471;28;20565;-47
2022/05/25 04:54:11;;;;;;;;;;;;;;;19.21;63.13;99871.19;2044543;28;19914;-49
2022/05/25 04:57:19;;;;;;;;;;;;;;;19.20;62.95;99868.84;2041999;28;19924;-48
2022/05/25 04:57:51;;;;;;;;;;;;;;;19.20;63.21;99875.13;2044436;28;24970;-50
2022/05/25 04:58:52;;;;;;;;;;;;;;;19.21;63.55;99870.41;2046998;28;20165;-48
2022/05/25 04:59:54;;;;;;;;;;;;;;;19.22;63.37;99878.22;2042942;28;24066;-47
2022/05/25 05:00:55;;;;;;;;;;;;;;;19.23;63.13;99881.75;2044235;28;20237;-49
2022/05/25 05:01:58;;;;;;;;;;;;;;;19.24;63.36;99877.81;2042021;28;19913;-48
2022/05/25 05:02:58;;;;;;;;;;;;;;;19.27;63.05;99887.94;2043119;28;20445;-48
2022/05/25 05:03:58;;;;;;;;;;;;;;;19.28;63.08;99884.03;2042796;28;20008;-50
2022/05/25 05:04:59;;;;;;;;;;;;;;;19.29;63.39;99888.31;2044610;28;20488;-49
2022/05/25 05:05:59;;;;;;;;;;;;;;;19.28;63.40;99895.78;2043807;28;20049;-48
2022/05/25 05:07:00;;;;;;;;;;;;;;;19.27;63.26;99896.97;2042563;28;19935;-49
2022/05/25 05:08:00;;;;;;;;;;;;;;;19.26;63.08;99898.16;2043114;28;20217;-52
2022/05/25 05:09:06;;;;;;;;;;;;;;;19.25;62.93;99893.06;2040129;28;19918;-48
2022/05/25 05:10:06;;;;;;;;;;;;;;;19.25;62.97;99899.34;2038921;28;19920;-49
2022/05/25 05:11:15;;;;;;;;;;;;;;;19.25;63.33;99893.84;2041554;28;20319;-52
2022/05/25 05:12:15;;;;;;;;;;;;;;;19.23;63.56;99896.25;2042709;28;19914;-49
2022/05/25 05:13:16;;;;;;;;;;;;;;;19.25;63.42;99899.34;2041918;28;19921;-49
2022/05/25 05:14:16;;;;;;;;;;;;;;;19.26;63.27;99900.91;2044688;28;20491;-48
2022/05/25 05:15:16;;;;;;;;;;;;;;;19.26;63.20;99902.88;2042641;28;25063;-48
2022/05/25 05:16:18;;;;;;;;;;;;;;;19.25;63.09;99899.34;2042952;28;20136;-50
2022/05/25 05:17:18;;;;;;;;;;;;;;;19.25;63.06;99896.59;2039343;28;20257;-48
2022/05/25 05:18:20;;;;;;;;;;;;;;;19.25;63.57;99896.59;2041624;28;24102;-49
2022/05/25 05:19:20;;;;;;;;;;;;;;;19.19;62.22;99894.78;2042879;28;20061;-51
2022/05/25 05:20:20;;;;;;;;;;;;;;;19.18;62.44;99898.72;2041468;28;19928;-48
2022/05/25 05:21:21;;;;;;;;;;;;;;;19.15;63.08;99889.31;2044363;28;20039;-48
2022/05/25 05:22:21;;;;;;;;;;;;;;;19.14;63.41;99889.75;2048847;28;20005;-48
2022/05/25 05:23:21;;;;;;;;;;;;;;;19.16;63.11;99890.88;2046065;28;19964;-51
2022/05/25 05:24:21;;;;;;;;;;;;;;;19.13;62.56;99891.72;2046434;28;20362;-51
2022/05/25 05:25:22;;;;;;;;;;;;;;;19.14;62.51;99892.50;2041355;28;19921;-48
2022/05/25 05:26:22;;;;;;;;;;;;;;;19.14;62.80;99893.25;2041718;28;20061;-49
2022/05/25 05:27:23;;;;;;;;;;;;;;;19.14;62.89;99895.25;2042669;28;20056;-51
2022/05/25 05:28:28;;;;;;;;;;;;;;;19.10;62.46;99900.00;2042861;28;20033;-49
2022/05/25 05:29:30;;;;;;;;;;;;;;;19.09;62.21;99901.97;2043848;28;20162;-51
2022/05/25 05:30:33;;;;;;;;;;;;;;;19.10;62.44;99900.78;2040407;28;25059;-48
2022/05/25 05:31:33;;;;;;;;;;;;;;;19.06;61.46;99902.81;2044504;28;20498;-51
2022/05/25 05:32:35;;;;;;;;;;;;;;;19.05;62.10;99916.94;2047080;28;20519;-50